Time;durP1;ratioP1;P1;durP2;ratioP2;P2;SDS_P1;SDS_P2;PMS_P1;PMS_P2;Temp;Humidity;BMP_temperature;BMP_pressure;BME280_temperature;BME280_humidity;BME280_pressure;Samples;Min_cycle;Max_cycle;Signal;HPM_P1;HPM_P2
2023/03/12 00:02:14;;;;;;;;;;;5.80;72.70;;;4.41;58.48;100165.00;5048577;28;19982;-75
2023/03/12 00:04:42;;;;;;;;;;;5.80;72.80;;;4.38;58.40;100176.72;5047098;28;19928;-75
2023/03/12 00:07:09;;;;;;;;;;;5.80;72.90;;;4.34;58.79;100180.72;5048303;28;19936;-75
2023/03/12 00:09:37;;;;;;;;;;;5.70;73.00;;;4.29;58.84;100178.59;5049292;28;19933;-75
2023/03/12 00:12:04;;;;;;;;;;;5.80;73.20;;;4.32;58.71;100178.25;5048146;28;19929;-75
2023/03/12 00:14:31;;;;;;;;;;;5.80;73.30;;;4.35;58.82;100174.44;5047167;28;19947;-75
2023/03/12 00:16:58;;;;;;;;;;;5.80;73.30;;;4.35;58.71;100171.81;5048956;28;19928;-75
2023/03/12 00:19:25;;;;;;;;;;;5.70;73.40;;;4.32;58.86;100177.44;5048531;28;19931;-75
2023/03/12 00:21:54;;;;;;;;;;;5.70;73.50;;;4.31;59.11;100179.25;5048114;28;20023;-75
2023/03/12 00:24:21;;;;;;;;;;;5.80;73.60;;;4.31;59.42;100165.25;5047346;28;19925;-75
2023/03/12 00:26:48;;;;;;;;;;;5.80;73.50;;;4.30;59.02;100174.16;5047471;28;20027;-75
2023/03/12 00:29:15;;;;;;;;;;;5.80;73.50;;;4.31;58.95;100175.81;5049175;28;20407;-76
2023/03/12 00:31:42;;;;;;;;;;;5.80;73.50;;;4.30;58.92;100161.78;5045057;28;19976;-75
2023/03/12 00:34:09;;;;;;;;;;;5.80;73.50;;;4.33;58.92;100152.66;5047743;28;19928;-76
2023/03/12 00:36:36;;;;;;;;;;;5.80;73.40;;;4.33;58.76;100155.31;5046597;28;19932;-75
2023/03/12 00:39:04;;;;;;;;;;;5.80;73.30;;;4.36;58.74;100152.31;5049992;28;19932;-76
2023/03/12 00:41:31;;;;;;;;;;;5.80;73.20;;;4.36;58.41;100152.31;5049440;28;19929;-75
2023/03/12 00:43:58;;;;;;;;;;;5.80;73.10;;;4.38;58.27;100151.13;5048451;28;19948;-76
2023/03/12 00:46:25;;;;;;;;;;;5.80;72.90;;;4.39;58.12;100155.44;5048949;28;19932;-76
2023/03/12 00:48:52;;;;;;;;;;;5.80;72.90;;;4.41;58.01;100146.50;5087681;28;19939;-75
2023/03/12 00:51:19;;;;;;;;;;;5.80;72.90;;;4.42;57.78;100135.75;5056508;28;19936;-76
2023/03/12 00:53:46;;;;;;;;;;;5.80;72.50;;;4.43;58.20;100139.22;5046454;28;20356;-76
2023/03/12 00:56:15;;;;;;;;;;;5.80;72.50;;;4.43;57.92;100139.22;5045943;28;19928;-76
2023/03/12 00:58:42;;;;;;;;;;;5.80;72.50;;;4.41;57.96;100134.13;5046747;28;19928;-75
2023/03/12 01:01:09;;;;;;;;;;;5.80;72.50;;;4.43;57.99;100126.03;5046410;28;19944;-76
2023/03/12 01:03:36;;;;;;;;;;;5.80;72.50;;;4.44;58.09;100125.84;5047356;28;19928;-75
2023/03/12 01:06:04;;;;;;;;;;;5.80;72.40;;;4.45;57.88;100127.50;5056351;22;20472;-76
2023/03/12 01:08:31;;;;;;;;;;;5.80;72.20;;;4.47;57.80;100122.03;5021365;28;19925;-76
2023/03/12 01:10:58;;;;;;;;;;;5.80;72.40;;;4.47;58.20;100122.84;5035257;28;19929;-76
2023/03/12 01:13:27;;;;;;;;;;;5.80;72.50;;;4.47;58.25;100119.38;5027974;28;19929;-76
2023/03/12 01:15:54;;;;;;;;;;;5.90;72.80;;;4.49;58.25;100120.84;5034363;28;20114;-75
2023/03/12 01:18:21;;;;;;;;;;;5.90;72.70;;;4.50;58.00;100122.50;5020078;28;20008;-76
2023/03/12 01:20:48;;;;;;;;;;;5.90;72.40;;;4.51;57.87;100118.03;5042092;28;19979;-76
2023/03/12 01:23:15;;;;;;;;;;;5.90;72.50;;;4.52;57.79;100114.38;5039633;28;19952;-76
2023/03/12 01:25:42;;;;;;;;;;;5.90;72.50;;;4.55;57.76;100109.56;5036328;28;19929;-76
2023/03/12 01:28:09;;;;;;;;;;;5.90;72.20;;;4.54;57.47;100105.28;5025269;28;20397;-76
2023/03/12 01:30:38;;;;;;;;;;;5.90;72.10;;;4.55;57.44;100104.28;5027001;28;20429;-76
2023/03/12 01:33:05;;;;;;;;;;;5.90;72.10;;;4.56;57.15;100100.63;5026625;28;19929;-76
2023/03/12 01:35:36;;;;;;;;;;;5.90;72.10;;;4.57;57.19;100096.16;5025930;28;19932;-76
2023/03/12 01:38:03;;;;;;;;;;;5.90;71.90;;;4.59;57.16;100105.56;5020369;28;19937;-76
2023/03/12 01:40:32;;;;;;;;;;;5.90;71.90;;;4.62;56.98;100099.91;5022569;28;19944;-76
2023/03/12 01:42:59;;;;;;;;;;;5.90;71.70;;;4.62;56.81;100097.25;5038254;28;19929;-75
2023/03/12 01:46:16;;;;;;;;;;;5.90;71.80;;;4.62;57.23;100099.09;5026652;28;20413;-76
2023/03/12 01:48:47;;;;;;;;;;;5.90;71.90;;;4.65;56.71;100091.63;5033221;28;20014;-76
2023/03/12 01:51:16;;;;;;;;;;;5.90;71.80;;;4.67;57.17;100091.44;5041266;28;19948;-76
2023/03/12 01:53:46;;;;;;;;;;;5.90;72.00;;;4.67;57.08;100085.34;5042774;28;19936;-76
2023/03/12 01:56:15;;;;;;;;;;;6.00;72.00;;;4.67;57.09;100085.34;5024373;28;20294;-76
2023/03/12 01:58:45;;;;;;;;;;;6.00;72.10;;;4.69;56.91;100075.44;5034631;28;20016;-76
2023/03/12 02:01:15;;;;;;;;;;;6.00;72.00;;;4.70;57.09;100064.66;5043451;28;19925;-76
2023/03/12 02:03:43;;;;;;;;;;;6.00;72.10;;;4.72;57.26;100062.66;5025316;28;20364;-76
2023/03/12 02:06:14;;;;;;;;;;;6.00;71.80;;;4.74;56.89;100068.59;5027252;28;19936;-75
2023/03/12 02:08:44;;;;;;;;;;;6.00;71.70;;;4.73;57.04;100069.56;5043596;28;20182;-76
2023/03/12 02:11:12;;;;;;;;;;;6.00;71.80;;;4.74;56.82;100075.69;5041858;28;19960;-76
2023/03/12 02:13:40;;;;;;;;;;;6.00;71.60;;;4.74;56.82;100065.13;5028463;28;20067;-76
2023/03/12 02:16:08;;;;;;;;;;;6.00;71.50;;;4.75;56.61;100067.59;5041940;28;20019;-76
2023/03/12 02:18:36;;;;;;;;;;;6.00;71.70;;;4.76;56.80;100063.13;5027055;28;19933;-76
2023/03/12 02:21:11;;;;;;;;;;;6.00;71.60;;;4.77;56.96;100046.25;5023918;28;19929;-76
2023/03/12 02:23:42;;;;;;;;;;;6.00;71.50;;;4.77;56.96;100047.06;5021799;28;20011;-76
2023/03/12 02:26:11;;;;;;;;;;;6.00;71.60;;;4.78;57.14;100048.75;5025425;28;19929;-76
2023/03/12 02:28:42;;;;;;;;;;;6.00;71.70;;;4.78;57.12;100046.09;5041551;28;19964;-76
2023/03/12 02:31:13;;;;;;;;;;;6.00;71.70;;;4.77;56.49;100041.78;5025935;28;20048;-76
2023/03/12 02:33:40;;;;;;;;;;;6.00;71.30;;;4.79;56.22;100042.44;5041410;28;19933;-76
2023/03/12 02:36:08;;;;;;;;;;;6.00;71.40;;;4.79;56.51;100042.44;5025300;28;19976;-76
2023/03/12 02:38:42;;;;;;;;;;;6.00;71.50;;;4.80;56.77;100048.53;5039912;28;19968;-76
2023/03/12 02:41:17;;;;;;;;;;;6.10;71.70;;;4.81;56.76;100044.88;5042279;28;19936;-76
2023/03/12 02:43:47;;;;;;;;;;;6.10;71.70;;;4.80;57.01;100038.78;5035489;28;19929;-75
2023/03/12 02:46:14;;;;;;;;;;;6.10;71.70;;;4.81;56.50;100050.19;5025584;28;19983;-76
2023/03/12 02:48:41;;;;;;;;;;;6.10;71.70;;;4.81;56.69;100051.00;5024838;28;19936;-76
2023/03/12 02:51:08;;;;;;;;;;;6.10;71.80;;;4.82;56.56;100033.31;5025111;28;20377;-76
2023/03/12 02:53:35;;;;;;;;;;;6.10;71.70;;;4.83;56.59;100037.59;5042404;28;19929;-76
2023/03/12 02:56:03;;;;;;;;;;;6.10;71.70;;;4.84;56.40;100034.78;5042536;28;19925;-76
2023/03/12 02:58:31;;;;;;;;;;;6.10;71.70;;;4.81;56.63;100019.28;5029518;28;20362;-76
2023/03/12 03:00:59;;;;;;;;;;;6.10;71.60;;;4.83;56.61;100027.03;5037672;28;19979;-76
2023/03/12 03:03:25;;;;;;;;;;;6.10;71.60;;;4.84;56.78;100018.13;5030678;28;20011;-76
2023/03/12 03:05:52;;;;;;;;;;;6.10;71.50;;;4.85;56.63;100019.75;5036106;28;19925;-76
2023/03/12 03:08:19;;;;;;;;;;;6.10;71.40;;;4.85;56.60;100022.38;5031572;28;20478;-76
2023/03/12 03:10:46;;;;;;;;;;;6.10;71.30;;;4.85;56.42;100017.09;5043699;28;20386;-75
2023/03/12 03:13:14;;;;;;;;;;;6.10;71.00;;;4.86;56.56;100016.91;5027863;28;19929;-76
2023/03/12 03:15:42;;;;;;;;;;;6.10;71.30;;;4.86;56.18;100005.53;5029913;28;19936;-76
2023/03/12 03:18:09;;;;;;;;;;;6.10;71.40;;;4.88;56.22;100008.78;5043476;28;19971;-77
2023/03/12 03:20:36;;;;;;;;;;;6.10;71.20;;;4.90;55.78;100004.97;5044946;28;19929;-76
2023/03/12 03:23:03;;;;;;;;;;;6.10;70.90;;;4.90;56.07;100006.81;5039809;28;20008;-76
2023/03/12 03:25:30;;;;;;;;;;;6.10;71.00;;;4.89;56.40;99999.88;5034539;28;20289;-76
2023/03/12 03:27:57;;;;;;;;;;;6.10;71.10;;;4.89;56.08;100002.53;5027717;28;20408;-75
2023/03/12 03:30:24;;;;;;;;;;;6.10;71.20;;;4.90;56.16;99998.88;5026227;28;19929;-77
2023/03/12 03:32:54;;;;;;;;;;;6.10;71.10;;;4.90;56.09;100001.50;5029655;28;19932;-77
2023/03/12 03:35:23;;;;;;;;;;;6.10;71.10;;;4.88;55.91;99998.22;5035671;28;19951;-76
2023/03/12 03:37:50;;;;;;;;;;;6.20;70.50;;;4.89;55.88;99999.88;5029918;28;19929;-76
2023/03/12 03:40:18;;;;;;;;;;;6.10;71.00;;;4.88;56.21;99998.22;5027125;28;19929;-76
2023/03/12 03:42:45;;;;;;;;;;;6.10;70.90;;;4.88;56.05;100000.88;5023165;28;20345;-77
2023/03/12 03:45:12;;;;;;;;;;;6.10;71.00;;;4.90;55.72;99991.75;5043270;28;20297;-77
2023/03/12 03:47:42;;;;;;;;;;;6.10;70.90;;;4.90;56.07;99990.94;5039243;28;19991;-76
2023/03/12 03:50:12;;;;;;;;;;;6.10;71.40;;;4.90;56.29;99997.03;5025780;28;19929;-76
2023/03/12 03:52:39;;;;;;;;;;;6.10;71.60;;;4.90;56.39;99988.31;5043808;28;19929;-76
2023/03/12 03:55:06;;;;;;;;;;;6.10;71.40;;;4.93;56.55;99995.03;5043657;28;19929;-76
2023/03/12 03:57:34;;;;;;;;;;;6.10;71.40;;;4.93;56.02;99987.09;5022281;28;19925;-76
2023/03/12 04:00:01;;;;;;;;;;;6.10;71.20;;;4.94;56.35;99986.13;5020987;28;20669;-76
2023/03/12 04:02:28;;;;;;;;;;;6.10;71.50;;;4.92;56.39;99981.00;5027503;28;19929;-76
2023/03/12 04:04:57;;;;;;;;;;;6.10;71.50;;;4.95;56.61;99988.56;5023477;28;19929;-76
2023/03/12 04:07:26;;;;;;;;;;;6.10;71.50;;;4.95;56.30;99983.28;5041603;28;19929;-76
2023/03/12 04:09:53;;;;;;;;;;;6.10;71.30;;;4.95;56.70;99991.22;5026562;28;19925;-76
2023/03/12 04:12:20;;;;;;;;;;;6.20;71.30;;;4.97;56.42;99993.66;5029360;28;19935;-76
2023/03/12 04:14:47;;;;;;;;;;;6.20;71.30;;;4.96;56.22;99976.97;5043630;28;20386;-77
2023/03/12 04:17:14;;;;;;;;;;;6.20;71.10;;;4.94;55.19;99984.28;5026808;28;19925;-77
2023/03/12 04:19:41;;;;;;;;;;;6.10;69.90;;;4.94;55.92;99983.47;5041669;28;20688;-76
2023/03/12 04:22:08;;;;;;;;;;;6.10;70.70;;;4.91;55.10;99980.19;5045398;28;19931;-77
2023/03/12 04:24:37;;;;;;;;;;;6.10;70.30;;;4.93;55.82;99981.81;5034660;28;20401;-76
2023/03/12 04:27:04;;;;;;;;;;;6.10;70.80;;;4.96;55.80;99976.97;5044469;28;19933;-76
2023/03/12 04:29:33;;;;;;;;;;;6.10;71.00;;;4.97;55.49;99975.16;5048031;28;20432;-76
2023/03/12 04:32:00;;;;;;;;;;;6.10;70.10;;;4.95;55.19;99975.34;5029378;28;19956;-76
2023/03/12 04:34:27;;;;;;;;;;;6.10;70.60;;;4.96;55.97;99970.88;5030247;28;19939;-76
2023/03/12 04:36:55;;;;;;;;;;;6.20;71.10;;;4.97;56.44;99961.94;5020387;28;19937;-76
2023/03/12 04:39:22;;;;;;;;;;;6.20;71.10;;;4.98;56.38;99967.06;5028380;28;20398;-77
2023/03/12 04:41:53;;;;;;;;;;;6.20;71.30;;;5.00;56.09;99966.88;5045951;28;19929;-76
2023/03/12 04:44:20;;;;;;;;;;;6.20;70.90;;;5.00;56.23;99972.97;5025752;28;19955;-76
2023/03/12 04:46:47;;;;;;;;;;;6.20;71.20;;;5.00;56.16;99965.03;5019823;28;19944;-76
2023/03/12 04:49:18;;;;;;;;;;;6.40;71.30;;;5.02;56.18;99960.38;5027099;28;19948;-76
2023/03/12 04:51:45;;;;;;;;;;;6.20;71.20;;;5.01;56.59;99953.47;5027227;28;20309;-76
2023/03/12 04:54:12;;;;;;;;;;;6.20;71.30;;;5.01;56.51;99953.47;5026600;28;20644;-76
2023/03/12 04:56:41;;;;;;;;;;;6.20;71.30;;;5.02;55.63;99941.88;5039062;28;20364;-76
2023/03/12 04:59:09;;;;;;;;;;;6.20;70.90;;;5.04;55.92;99941.72;5021442;28;20390;-76
2023/03/12 05:01:37;;;;;;;;;;;6.20;71.20;;;5.03;56.13;99943.53;5028003;28;19929;-76
2023/03/12 05:04:09;;;;;;;;;;;6.20;70.90;;;5.03;55.22;99946.19;5044269;28;19933;-77
2023/03/12 05:06:36;;;;;;;;;;;6.20;70.20;;;4.98;54.80;99938.00;5037385;28;19939;-76
2023/03/12 05:09:03;;;;;;;;;;;6.20;69.90;;;5.00;55.40;99919.31;5041472;28;19929;-76
2023/03/12 05:11:30;;;;;;;;;;;6.20;70.60;;;5.01;55.80;99931.50;5027045;28;19980;-76
2023/03/12 05:13:57;;;;;;;;;;;6.20;70.90;;;5.04;56.13;99924.03;5026640;28;19929;-76
2023/03/12 05:16:26;;;;;;;;;;;6.20;71.20;;;4.97;54.70;99907.28;5025924;28;20378;-77
2023/03/12 05:18:53;;;;;;;;;;;6.20;69.60;;;4.95;55.04;99908.47;5038690;28;19929;-77
2023/03/12 05:21:22;;;;;;;;;;;6.20;70.10;;;4.96;55.41;99907.47;5020882;28;19933;-77
2023/03/12 05:23:53;;;;;;;;;;;6.20;70.70;;;4.94;55.37;99912.94;5036986;28;19998;-76
2023/03/12 05:26:22;;;;;;;;;;;6.20;70.50;;;4.99;55.74;99910.56;5018626;28;20354;-76
2023/03/12 05:28:50;;;;;;;;;;;6.20;70.70;;;5.00;55.62;99909.53;5042179;28;19925;-77
2023/03/12 05:31:19;;;;;;;;;;;6.20;70.30;;;4.96;54.34;99910.91;5036481;28;19925;-77
2023/03/12 05:33:48;;;;;;;;;;;6.20;69.40;;;4.90;54.66;99901.94;5042412;28;19944;-76
2023/03/12 05:36:15;;;;;;;;;;;6.10;69.70;;;4.96;55.35;99892.44;5024390;28;19964;-76
2023/03/12 05:38:44;;;;;;;;;;;6.10;70.50;;;4.88;54.52;99898.66;5023977;28;19983;-76
2023/03/12 05:41:18;;;;;;;;;;;6.10;69.40;;;4.85;54.80;99891.09;5039603;28;19975;-76
2023/03/12 05:43:45;;;;;;;;;;;6.10;69.80;;;4.86;54.80;99898.03;5034171;28;20695;-76
2023/03/12 05:46:13;;;;;;;;;;;6.10;69.60;;;4.82;53.53;99895.94;5021570;28;20032;-76
2023/03/12 05:48:40;;;;;;;;;;;6.00;68.50;;;4.83;55.15;99895.78;5020432;28;19933;-76
2023/03/12 05:51:08;;;;;;;;;;;6.00;70.30;;;4.85;55.13;99892.94;5023680;28;19929;-76
2023/03/12 05:53:36;;;;;;;;;;;6.00;70.30;;;4.82;55.01;99880.09;5026679;28;19926;-76
2023/03/12 05:56:05;;;;;;;;;;;6.00;69.80;;;4.78;55.31;99876.19;5024051;28;19936;-76
2023/03/12 05:58:32;;;;;;;;;;;6.00;70.20;;;4.80;56.03;99887.41;5039653;28;20008;-76
2023/03/12 06:00:59;;;;;;;;;;;6.00;70.80;;;4.83;55.69;99882.56;5042040;28;19925;-76
2023/03/12 06:03:26;;;;;;;;;;;6.00;70.60;;;4.84;56.50;99867.53;5029703;28;19936;-76
2023/03/12 06:05:55;;;;;;;;;;;6.00;71.30;;;4.84;56.27;99856.97;5024308;28;19961;-76
2023/03/12 06:08:24;;;;;;;;;;;6.00;71.40;;;4.84;56.25;99856.97;5024137;28;20295;-76
2023/03/12 06:10:53;;;;;;;;;;;6.00;71.50;;;4.87;56.45;99849.47;5042596;28;19944;-76
2023/03/12 06:13:22;;;;;;;;;;;6.00;71.50;;;4.89;56.49;99833.44;5041033;28;19967;-76
2023/03/12 06:15:49;;;;;;;;;;;6.10;71.80;;;4.85;56.94;99833.00;5038889;28;20020;-76
2023/03/12 06:18:16;;;;;;;;;;;6.00;72.00;;;4.79;56.98;99822.38;5020790;28;19929;-76
2023/03/12 06:20:43;;;;;;;;;;;6.00;71.90;;;4.84;57.36;99819.97;5042560;28;19933;-76
2023/03/12 06:23:11;;;;;;;;;;;6.00;72.20;;;4.88;57.27;99837.91;5043759;28;19979;-76
2023/03/12 06:25:39;;;;;;;;;;;6.00;72.50;;;4.88;56.70;99845.84;5042336;28;19935;-77
2023/03/12 06:28:06;;;;;;;;;;;6.10;71.90;;;4.88;56.84;99845.84;5031530;28;20012;-76
2023/03/12 06:30:33;;;;;;;;;;;6.00;72.10;;;4.86;57.18;99836.44;5030966;28;19928;-77
2023/03/12 06:33:02;;;;;;;;;;;6.10;72.50;;;4.86;57.10;99836.44;5042888;28;19925;-76
2023/03/12 06:35:29;;;;;;;;;;;6.10;72.70;;;4.87;57.14;99838.06;5030135;28;19933;-77
2023/03/12 06:37:56;;;;;;;;;;;6.10;72.70;;;4.89;57.93;99852.75;5027183;28;20413;-76
2023/03/12 06:40:23;;;;;;;;;;;6.10;73.30;;;4.95;58.31;99858.28;5030455;28;19935;-76
2023/03/12 06:42:51;;;;;;;;;;;6.10;73.50;;;4.95;58.05;99853.81;5021139;28;19929;-76
2023/03/12 06:45:18;;;;;;;;;;;6.10;73.30;;;4.90;58.23;99853.56;5031004;28;20609;-76
2023/03/12 06:47:45;;;;;;;;;;;6.10;73.50;;;4.92;58.77;99843.59;5030302;28;20039;-76
2023/03/12 06:50:12;;;;;;;;;;;6.10;74.10;;;4.95;59.24;99853.81;5030654;28;19940;-76
2023/03/12 06:52:39;;;;;;;;;;;6.10;74.30;;;4.89;58.86;99844.81;5023485;28;19936;-76
2023/03/12 06:55:07;;;;;;;;;;;6.10;74.30;;;4.89;59.16;99836.88;5029029;28;20472;-76
2023/03/12 06:57:34;;;;;;;;;;;6.10;74.70;;;4.91;59.49;99832.22;5021680;28;20412;-77
2023/03/12 07:00:02;;;;;;;;;;;6.10;75.10;;;4.95;59.75;99837.94;5030001;28;19938;-76
2023/03/12 07:02:29;;;;;;;;;;;6.10;75.20;;;4.91;59.65;99823.47;5030213;28;19933;-76
2023/03/12 07:04:56;;;;;;;;;;;6.10;75.20;;;4.85;60.19;99840.09;5030489;28;20408;-76
2023/03/12 07:07:23;;;;;;;;;;;6.10;75.80;;;4.79;60.86;99843.50;5057605;22;19929;-76
2023/03/12 07:09:50;;;;;;;;;;;6.00;76.10;;;4.80;61.16;99837.22;5051240;28;19925;-75
2023/03/12 07:12:17;;;;;;;;;;;6.00;76.40;;;4.83;61.09;99831.53;5054965;28;20365;-76
2023/03/12 07:14:44;;;;;;;;;;;6.00;76.70;;;4.77;61.76;99822.53;5051953;28;19937;-77
2023/03/12 07:17:12;;;;;;;;;;;6.00;77.20;;;4.71;62.04;99823.31;5050265;28;19933;-77
2023/03/12 07:19:40;;;;;;;;;;;5.90;77.70;;;4.75;62.53;99829.03;5042234;28;20427;-76
2023/03/12 07:22:06;;;;;;;;;;;6.00;77.80;;;4.73;62.71;99826.56;5048649;28;19935;-76
2023/03/12 07:24:34;;;;;;;;;;;6.00;78.00;;;4.77;63.01;99829.66;5047500;28;19928;-78
2023/03/12 07:27:00;;;;;;;;;;;6.00;78.70;;;4.71;63.37;99820.66;5045647;28;19924;-79
2023/03/12 07:29:27;;;;;;;;;;;6.00;78.60;;;4.72;63.14;99819.66;5049465;28;20726;-78
2023/03/12 07:31:54;;;;;;;;;;;5.90;78.90;;;4.72;63.46;99824.13;5054056;28;19928;-79
2023/03/12 07:34:23;;;;;;;;;;;5.90;79.10;;;4.65;64.04;99826.72;5046458;28;19925;-79
2023/03/12 07:36:50;;;;;;;;;;;5.90;79.60;;;4.68;64.09;99828.13;5044869;28;19940;-78
2023/03/12 07:39:18;;;;;;;;;;;5.90;79.70;;;4.68;64.04;99822.84;5047539;28;19932;-78
2023/03/12 07:41:45;;;;;;;;;;;5.90;79.80;;;4.72;64.30;99816.19;5043671;28;19951;-79
2023/03/12 07:44:11;;;;;;;;;;;5.90;79.90;;;4.76;64.49;99804.25;5049850;28;20023;-78
2023/03/12 07:46:38;;;;;;;;;;;5.90;80.00;;;4.79;64.13;99809.16;5043657;28;19944;-78
2023/03/12 07:49:05;;;;;;;;;;;6.00;80.20;;;4.84;64.39;99802.31;5048854;28;19932;-79
2023/03/12 07:51:34;;;;;;;;;;;6.00;80.20;;;4.88;64.71;99810.63;5058364;28;19929;-78
2023/03/12 07:54:01;;;;;;;;;;;6.00;80.20;;;4.88;64.92;99810.63;5046507;28;19933;-78
2023/03/12 07:56:29;;;;;;;;;;;6.10;80.50;;;4.91;65.09;99819.00;5048428;28;19929;-79
2023/03/12 07:58:56;;;;;;;;;;;6.10;80.90;;;4.83;65.20;99816.53;5045423;28;20019;-78
2023/03/12 08:01:24;;;;;;;;;;;6.00;81.00;;;4.86;65.10;99810.84;5046905;28;19933;-78
2023/03/12 08:03:51;;;;;;;;;;;6.10;81.00;;;4.84;65.59;99793.56;5042603;28;19936;-78
2023/03/12 08:06:18;;;;;;;;;;;6.10;81.60;;;4.85;65.80;99792.53;5052265;28;20259;-77
2023/03/12 08:08:46;;;;;;;;;;;6.00;81.70;;;4.86;66.04;99795.00;5037475;28;20012;-78
2023/03/12 08:11:13;;;;;;;;;;;6.00;81.60;;;4.94;65.91;99793.25;5045616;28;19928;-78
2023/03/12 08:13:40;;;;;;;;;;;6.10;81.80;;;4.92;66.83;99793.41;5042049;28;19937;-78
2023/03/12 08:16:07;;;;;;;;;;;6.10;82.50;;;4.95;66.85;99806.25;5054140;28;19925;-78
2023/03/12 08:18:34;;;;;;;;;;;6.10;82.20;;;5.02;66.78;99804.47;5035291;28;19929;-76
2023/03/12 08:21:01;;;;;;;;;;;6.20;82.30;;;5.05;67.07;99813.84;5050657;28;19935;-88
2023/03/12 08:23:28;;;;;;;;;;;6.20;82.60;;;5.05;66.91;99812.00;5049193;28;19928;-76
2023/03/12 08:26:01;;;;;;;;;;;6.20;82.50;;;5.10;67.00;99800.88;5044831;28;19955;-76
2023/03/12 08:28:29;;;;;;;;;;;6.20;82.60;;;5.03;66.91;99802.66;5037321;28;19959;-77
2023/03/12 08:31:12;;;;;;;;;;;6.20;82.80;;;5.02;67.24;99793.06;5040439;28;20039;-76
2023/03/12 08:33:42;;;;;;;;;;;6.20;82.70;;;5.05;67.26;99798.00;5037206;28;20665;-76
2023/03/12 08:36:11;;;;;;;;;;;6.20;82.90;;;5.00;67.45;99795.91;5039872;28;19928;-76
2023/03/12 08:38:39;;;;;;;;;;;6.20;83.30;;;4.95;68.05;99793.03;5045215;28;20461;-76
2023/03/12 08:41:07;;;;;;;;;;;6.10;83.90;;;4.90;68.32;99790.97;5043649;28;20304;-78
2023/03/12 08:43:34;;;;;;;;;;;6.10;84.00;;;4.95;68.81;99797.50;5046915;28;19928;-77
2023/03/12 08:46:02;;;;;;;;;;;6.20;84.10;;;4.95;68.64;99782.47;5037293;28;20407;-77
2023/03/12 08:48:31;;;;;;;;;;;6.20;84.20;;;4.91;69.28;99789.13;5047762;28;19928;-77
2023/03/12 08:50:59;;;;;;;;;;;6.10;84.90;;;4.99;69.49;99782.91;5050525;28;19928;-78
2023/03/12 08:53:27;;;;;;;;;;;6.20;85.20;;;5.03;69.97;99784.16;5043186;28;19929;-77
2023/03/12 08:55:55;;;;;;;;;;;6.10;85.70;;;5.05;70.35;99777.66;5032373;28;19929;-77
2023/03/12 08:58:24;;;;;;;;;;;6.20;86.10;;;5.07;71.06;99775.63;5040959;28;19932;-77
2023/03/12 09:00:52;;;;;;;;;;;6.20;86.50;;;5.10;71.34;99777.09;5041686;28;19939;-77
2023/03/12 09:03:20;;;;;;;;;;;6.30;87.10;;;5.12;72.20;99775.91;5048702;28;20390;-77
2023/03/12 09:05:48;;;;;;;;;;;6.30;87.20;;;5.13;72.00;99780.16;5053325;28;19977;-77
2023/03/12 09:08:16;;;;;;;;;;;6.30;87.40;;;5.12;72.36;99775.06;5045683;28;19964;-77
2023/03/12 09:10:48;;;;;;;;;;;6.30;87.70;;;5.15;72.65;99777.31;5044699;28;20351;-77
2023/03/12 09:13:15;;;;;;;;;;;6.30;87.90;;;5.19;73.10;99783.06;5050062;28;19929;-77
2023/03/12 09:15:43;;;;;;;;;;;6.30;88.40;;;5.22;73.10;99780.84;5035372;28;19928;-78
2023/03/12 09:18:10;;;;;;;;;;;6.40;88.10;;;5.25;73.44;99791.00;5038958;28;19932;-78
2023/03/12 09:20:37;;;;;;;;;;;6.40;88.60;;;5.23;74.10;99777.19;5055577;28;19924;-78
2023/03/12 09:23:04;;;;;;;;;;;6.40;88.90;;;5.20;74.47;99776.75;5041690;28;19929;-78
2023/03/12 09:25:31;;;;;;;;;;;6.40;89.10;;;5.16;74.86;99774.47;5054109;28;19955;-78
2023/03/12 09:28:00;;;;;;;;;;;6.30;89.70;;;5.19;75.30;99772.47;5038789;28;20391;-78
2023/03/12 09:30:29;;;;;;;;;;;6.50;90.40;;;5.20;76.05;99768.81;5050031;28;19929;-78
2023/03/12 09:32:57;;;;;;;;;;;6.40;90.70;;;5.19;76.80;99783.06;5048086;28;19932;-78
2023/03/12 09:35:24;;;;;;;;;;;6.40;91.20;;;5.15;77.22;99770.22;5045282;28;19958;-78
2023/03/12 09:37:51;;;;;;;;;;;6.30;91.60;;;5.14;78.09;99778.34;5045328;28;19929;-78
2023/03/12 09:40:21;;;;;;;;;;;6.30;92.20;;;5.18;78.88;99781.41;5046399;28;19932;-77
2023/03/12 09:42:51;;;;;;;;;;;6.40;93.00;;;5.20;79.11;99784.69;5040911;28;19932;-78
2023/03/12 09:45:21;;;;;;;;;;;6.40;92.80;;;5.20;79.30;99792.59;5044064;28;19935;-78
2023/03/12 09:47:50;;;;;;;;;;;6.30;93.00;;;5.20;78.88;99788.13;5037694;28;20472;-78
2023/03/12 09:50:23;;;;;;;;;;;6.30;92.90;;;5.24;79.44;99793.84;5042797;28;20381;-78
2023/03/12 09:52:53;;;;;;;;;;;6.40;93.10;;;5.23;79.32;99776.38;5036483;28;19929;-78
2023/03/12 09:55:22;;;;;;;;;;;6.40;93.30;;;5.14;80.07;99779.16;5045646;28;19936;-77
2023/03/12 09:57:51;;;;;;;;;;;6.30;93.50;;;5.09;81.17;99809.81;5043892;28;19933;-77
2023/03/12 10:00:19;;;;;;;;;;;6.30;94.20;;;5.13;81.04;99805.78;5045354;28;20023;-77
2023/03/12 10:03:08;;;;;;;;;;;6.30;94.00;;;5.21;80.93;99797.69;5054644;28;19936;-77
2023/03/12 10:05:41;;;;;;;;;;;6.40;94.40;;;5.20;81.78;99811.09;5036974;28;19939;-77
2023/03/12 10:08:13;;;;;;;;;;;6.40;94.80;;;5.24;81.24;99801.78;5035302;28;19947;-77
2023/03/12 10:10:49;;;;;;;;;;;6.40;94.60;;;5.31;81.85;99805.28;5034388;28;20028;-77
2023/03/12 10:13:42;;;;;;;;;;;6.50;95.20;;;5.32;82.25;99810.41;5043110;28;19968;-76
2023/03/12 10:16:21;;;;;;;;;;;6.50;95.20;;;5.35;82.61;99806.53;5036388;28;20448;-77
2023/03/12 10:18:58;;;;;;;;;;;6.50;95.60;;;5.38;82.96;99800.88;5037443;28;19929;-76
2023/03/12 10:21:33;;;;;;;;;;;6.50;95.80;;;5.44;83.51;99805.38;5037728;28;19941;-76
2023/03/12 10:24:15;;;;;;;;;;;6.60;96.60;;;5.47;84.00;99802.34;5039471;28;20020;-77
2023/03/12 10:26:45;;;;;;;;;;;6.60;97.10;;;5.47;84.77;99794.41;5041352;28;19932;-77
2023/03/12 10:29:15;;;;;;;;;;;6.60;97.30;;;5.46;84.70;99794.59;5037499;28;20400;-77
2023/03/12 10:31:53;;;;;;;;;;;6.60;97.30;;;5.49;85.61;99802.97;5037239;28;20304;-77
2023/03/12 10:34:25;;;;;;;;;;;6.70;97.70;;;5.53;85.14;99803.41;5041541;28;19929;-77
2023/03/12 10:36:57;;;;;;;;;;;6.70;98.00;;;5.56;85.71;99805.63;5043130;28;19933;-77
2023/03/12 10:39:25;;;;;;;;;;;6.70;97.90;;;5.57;84.89;99802.81;5046285;28;19935;-77
2023/03/12 10:41:52;;;;;;;;;;;6.70;97.80;;;5.57;84.99;99810.75;5040467;28;20056;-77
2023/03/12 10:44:22;;;;;;;;;;;6.70;97.70;;;5.62;85.58;99818.91;5038127;28;19968;-77
2023/03/12 10:46:59;;;;;;;;;;;6.80;98.20;;;5.64;85.99;99821.34;5040450;28;20411;-77
2023/03/12 10:49:30;;;;;;;;;;;6.80;98.50;;;5.68;85.87;99835.84;5043404;28;19929;-77
2023/03/12 10:52:00;;;;;;;;;;;6.80;98.20;;;5.67;85.75;99832.38;5037308;28;19924;-77
2023/03/12 10:54:32;;;;;;;;;;;6.80;98.50;;;5.69;86.09;99830.34;5046621;28;19933;-77
2023/03/12 10:57:00;;;;;;;;;;;6.80;98.70;;;5.69;86.36;99821.59;5046368;28;20015;-77
2023/03/12 10:59:30;;;;;;;;;;;6.80;99.10;;;5.70;86.97;99828.50;5044088;28;20409;-77
2023/03/12 11:01:57;;;;;;;;;;;6.80;99.20;;;5.74;87.16;99829.75;5038196;28;19929;-77
2023/03/12 11:04:26;;;;;;;;;;;6.80;99.10;;;5.78;87.10;99827.53;5043640;28;19929;-77
2023/03/12 11:07:18;;;;;;;;;;;6.90;99.60;;;5.79;87.18;99834.47;5043732;28;19935;-78
2023/03/12 11:09:46;;;;;;;;;;;6.90;99.60;;;5.76;87.62;99833.03;5044895;28;19929;-77
2023/03/12 11:12:24;;;;;;;;;;;6.90;99.60;;;5.75;88.23;99834.03;5039503;28;20296;-77
2023/03/12 11:14:51;;;;;;;;;;;6.90;99.70;;;5.79;88.01;99837.09;5043977;28;19928;-75
2023/03/12 11:17:23;;;;;;;;;;;6.90;99.90;;;5.83;87.71;99833.06;5042040;28;19933;-76
2023/03/12 11:19:50;;;;;;;;;;;7.00;99.70;;;5.86;88.52;99830.03;5034173;28;19929;-77
2023/03/12 11:22:30;;;;;;;;;;;7.00;99.90;;;5.89;88.76;99821.69;5050338;28;19929;-77
2023/03/12 11:24:59;;;;;;;;;;;7.00;99.90;;;5.92;89.36;99829.28;5039263;28;20035;-77
2023/03/12 11:27:40;;;;;;;;;;;7.00;99.90;;;5.93;89.95;99822.97;5044147;28;19936;-78
2023/03/12 11:30:14;;;;;;;;;;;7.00;99.90;;;5.97;90.75;99813.63;5035284;28;19925;-77
2023/03/12 11:32:43;;;;;;;;;;;7.10;99.90;;;5.99;91.04;99808.94;5040835;28;20396;-77
2023/03/12 11:35:11;;;;;;;;;;;7.10;99.90;;;6.04;91.62;99811.00;5048841;28;20526;-77
2023/03/12 11:37:51;;;;;;;;;;;7.10;99.90;;;6.07;92.01;99805.31;5039908;28;19933;-77
2023/03/12 11:40:29;;;;;;;;;;;7.20;99.90;;;6.10;92.28;99812.84;5045780;28;20079;-78